sensor_id;sensor_type;location;lat;lon;timestamp;temperature;humidity
26272;DHT22;13997;48.902;12.472;2023-01-16T00:21:41;51.40;2227.20
26272;DHT22;13997;48.902;12.472;2023-01-16T00:24:08;51.30;2227.20
26272;DHT22;13997;48.902;12.472;2023-01-16T00:26:33;51.20;2227.20
26272;DHT22;13997;48.902;12.472;2023-01-16T00:28:59;51.20;2227.20
26272;DHT22;13997;48.902;12.472;2023-01-16T00:31:25;51.20;2227.20
26272;DHT22;13997;48.902;12.472;2023-01-16T00:33:51;26.50;2201.60
26272;DHT22;13997;48.902;12.472;2023-01-16T00:36:17;51.20;2227.20
26272;DHT22;13997;48.902;12.472;2023-01-16T00:38:42;51.20;2227.20
26272;DHT22;13997;48.902;12.472;2023-01-16T00:41:08;51.20;2227.20
26272;DHT22;13997;48.902;12.472;2023-01-16T00:43:34;51.20;2227.20
26272;DHT22;13997;48.902;12.472;2023-01-16T00:45:59;51.20;2227.20
26272;DHT22;13997;48.902;12.472;2023-01-16T00:48:25;51.20;2227.20
26272;DHT22;13997;48.902;12.472;2023-01-16T00:50:51;51.20;2227.20
26272;DHT22;13997;48.902;12.472;2023-01-16T00:53:16;51.20;2227.20
26272;DHT22;13997;48.902;12.472;2023-01-16T00:55:42;26.50;2201.60
26272;DHT22;13997;48.902;12.472;2023-01-16T00:58:09;51.20;2227.20
26272;DHT22;13997;48.902;12.472;2023-01-16T01:00:35;26.50;2201.60
26272;DHT22;13997;48.902;12.472;2023-01-16T01:03:02;51.20;2227.20
26272;DHT22;13997;48.902;12.472;2023-01-16T01:05:30;51.20;2227.20
26272;DHT22;13997;48.902;12.472;2023-01-16T01:07:56;51.20;2227.20
26272;DHT22;13997;48.902;12.472;2023-01-16T01:10:22;51.20;2227.20
26272;DHT22;13997;48.902;12.472;2023-01-16T01:12:47;51.30;2227.20
26272;DHT22;13997;48.902;12.472;2023-01-16T01:15:13;51.30;2227.20
26272;DHT22;13997;48.902;12.472;2023-01-16T01:17:38;51.30;2227.20
26272;DHT22;13997;48.902;12.472;2023-01-16T01:20:05;51.30;2227.20
26272;DHT22;13997;48.902;12.472;2023-01-16T01:22:30;51.30;2227.20
26272;DHT22;13997;48.902;12.472;2023-01-16T01:24:56;51.30;2227.20
26272;DHT22;13997;48.902;12.472;2023-01-16T01:27:22;51.30;2227.20
26272;DHT22;13997;48.902;12.472;2023-01-16T01:29:47;51.40;2227.20
26272;DHT22;13997;48.902;12.472;2023-01-16T01:32:13;51.40;2227.20
26272;DHT22;13997;48.902;12.472;2023-01-16T01:34:38;51.40;2227.20
26272;DHT22;13997;48.902;12.472;2023-01-16T01:37:06;51.30;2227.20
26272;DHT22;13997;48.902;12.472;2023-01-16T01:39:32;51.30;2227.20
26272;DHT22;13997;48.902;12.472;2023-01-16T01:41:58;51.40;2227.20
26272;DHT22;13997;48.902;12.472;2023-01-16T01:45:04;51.30;2227.20
26272;DHT22;13997;48.902;12.472;2023-01-16T01:47:36;51.30;2227.20
26272;DHT22;13997;48.902;12.472;2023-01-16T01:50:09;51.20;2227.20
26272;DHT22;13997;48.902;12.472;2023-01-16T01:52:36;51.20;2227.20
26272;DHT22;13997;48.902;12.472;2023-01-16T01:55:04;51.20;2227.20
26272;DHT22;13997;48.902;12.472;2023-01-16T01:57:37;26.50;2201.60
26272;DHT22;13997;48.902;12.472;2023-01-16T02:00:09;26.50;2201.60
26272;DHT22;13997;48.902;12.472;2023-01-16T02:02:35;26.50;2201.60
26272;DHT22;13997;48.902;12.472;2023-01-16T02:05:04;26.50;2201.60
26272;DHT22;13997;48.902;12.472;2023-01-16T02:07:30;26.50;2201.60
26272;DHT22;13997;48.902;12.472;2023-01-16T02:10:25;26.50;2201.60
26272;DHT22;13997;48.902;12.472;2023-01-16T02:12:48;26.50;2201.60
26272;DHT22;13997;48.902;12.472;2023-01-16T02:15:13;26.50;2201.60
26272;DHT22;13997;48.902;12.472;2023-01-16T02:17:45;51.20;2227.20
26272;DHT22;13997;48.902;12.472;2023-01-16T02:20:32;51.20;2227.20
26272;DHT22;13997;48.902;12.472;2023-01-16T02:39:38;26.40;2201.60
26272;DHT22;13997;48.902;12.472;2023-01-16T02:52:56;26.30;2201.60
26272;DHT22;13997;48.902;12.472;2023-01-16T02:55:33;26.30;2201.60
26272;DHT22;13997;48.902;12.472;2023-01-16T02:58:02;26.30;2201.60
26272;DHT22;13997;48.902;12.472;2023-01-16T03:00:30;26.30;2201.60
26272;DHT22;13997;48.902;12.472;2023-01-16T03:02:55;26.30;2201.60
26272;DHT22;13997;48.902;12.472;2023-01-16T03:05:22;26.30;2201.60
26272;DHT22;13997;48.902;12.472;2023-01-16T03:08:16;26.30;2201.60
26272;DHT22;13997;48.902;12.472;2023-01-16T03:18:33;26.30;2201.60
26272;DHT22;13997;48.902;12.472;2023-01-16T03:24:03;26.40;2201.60
26272;DHT22;13997;48.902;12.472;2023-01-16T03:26:56;26.30;2201.60
26272;DHT22;13997;48.902;12.472;2023-01-16T03:29:31;26.30;2201.60
26272;DHT22;13997;48.902;12.472;2023-01-16T03:32:19;26.40;2201.60
26272;DHT22;13997;48.902;12.472;2023-01-16T03:34:54;26.40;2201.60
26272;DHT22;13997;48.902;12.472;2023-01-16T03:37:38;26.40;2201.60
26272;DHT22;13997;48.902;12.472;2023-01-16T03:40:14;26.40;2201.60
26272;DHT22;13997;48.902;12.472;2023-01-16T03:45:28;26.40;2201.60
26272;DHT22;13997;48.902;12.472;2023-01-16T03:48:05;26.40;2201.60
26272;DHT22;13997;48.902;12.472;2023-01-16T03:50:34;26.40;2201.60
26272;DHT22;13997;48.902;12.472;2023-01-16T03:53:03;26.40;2201.60
26272;DHT22;13997;48.902;12.472;2023-01-16T03:55:41;26.40;2201.60
26272;DHT22;13997;48.902;12.472;2023-01-16T03:58:15;26.40;2201.60
26272;DHT22;13997;48.902;12.472;2023-01-16T04:04:07;26.40;2201.60
26272;DHT22;13997;48.902;12.472;2023-01-16T04:06:50;26.40;2201.60
26272;DHT22;13997;48.902;12.472;2023-01-16T04:09:23;26.40;2201.60
26272;DHT22;13997;48.902;12.472;2023-01-16T04:11:50;26.40;2201.60
26272;DHT22;13997;48.902;12.472;2023-01-16T04:14:18;26.40;2201.60
26272;DHT22;13997;48.902;12.472;2023-01-16T04:16:45;26.30;2201.60
26272;DHT22;13997;48.902;12.472;2023-01-16T04:19:13;26.30;2201.60
26272;DHT22;13997;48.902;12.472;2023-01-16T04:21:43;26.30;2201.60
26272;DHT22;13997;48.902;12.472;2023-01-16T04:24:09;26.30;2201.60
26272;DHT22;13997;48.902;12.472;2023-01-16T04:26:34;26.30;2201.60
26272;DHT22;13997;48.902;12.472;2023-01-16T04:29:00;26.30;2201.60
26272;DHT22;13997;48.902;12.472;2023-01-16T04:31:25;26.20;2201.60
26272;DHT22;13997;48.902;12.472;2023-01-16T04:33:53;26.20;2201.60
26272;DHT22;13997;48.902;12.472;2023-01-16T04:36:18;26.20;2201.60
26272;DHT22;13997;48.902;12.472;2023-01-16T04:38:44;26.20;2201.60
26272;DHT22;13997;48.902;12.472;2023-01-16T04:41:09;26.20;2201.60
26272;DHT22;13997;48.902;12.472;2023-01-16T04:43:35;26.20;2201.60
26272;DHT22;13997;48.902;12.472;2023-01-16T04:46:00;26.10;2201.60
26272;DHT22;13997;48.902;12.472;2023-01-16T04:48:26;26.10;2201.60
26272;DHT22;13997;48.902;12.472;2023-01-16T04:50:51;26.10;2201.60
26272;DHT22;13997;48.902;12.472;2023-01-16T04:53:17;26.10;2201.60
26272;DHT22;13997;48.902;12.472;2023-01-16T04:55:43;26.10;2201.60
26272;DHT22;13997;48.902;12.472;2023-01-16T04:58:08;26.00;2201.60
26272;DHT22;13997;48.902;12.472;2023-01-16T05:00:34;26.00;2201.60
26272;DHT22;13997;48.902;12.472;2023-01-16T05:02:59;26.00;2201.60
26272;DHT22;13997;48.902;12.472;2023-01-16T05:05:25;25.90;2201.60
26272;DHT22;13997;48.902;12.472;2023-01-16T05:07:51;25.90;2201.60
26272;DHT22;13997;48.902;12.472;2023-01-16T05:10:36;25.90;2201.60
26272;DHT22;13997;48.902;12.472;2023-01-16T05:13:02;25.90;2201.60
26272;DHT22;13997;48.902;12.472;2023-01-16T05:15:28;25.80;2201.60
26272;DHT22;13997;48.902;12.472;2023-01-16T05:17:54;25.80;2201.60
26272;DHT22;13997;48.902;12.472;2023-01-16T05:20:20;25.80;2201.60
26272;DHT22;13997;48.902;12.472;2023-01-16T05:22:47;25.80;2201.60
26272;DHT22;13997;48.902;12.472;2023-01-16T05:25:12;25.80;2201.60
26272;DHT22;13997;48.902;12.472;2023-01-16T05:27:38;25.70;2201.60
26272;DHT22;13997;48.902;12.472;2023-01-16T05:30:04;25.70;2201.60
26272;DHT22;13997;48.902;12.472;2023-01-16T05:32:29;25.70;2201.60
26272;DHT22;13997;48.902;12.472;2023-01-16T05:34:55;25.70;2201.60
26272;DHT22;13997;48.902;12.472;2023-01-16T05:37:20;25.70;2201.60
26272;DHT22;13997;48.902;12.472;2023-01-16T05:39:46;25.70;2201.60
26272;DHT22;13997;48.902;12.472;2023-01-16T05:42:12;25.70;2201.60
26272;DHT22;13997;48.902;12.472;2023-01-16T05:44:49;25.60;2201.60
26272;DHT22;13997;48.902;12.472;2023-01-16T05:47:15;25.60;2201.60
26272;DHT22;13997;48.902;12.472;2023-01-16T05:49:41;25.60;2201.60
26272;DHT22;13997;48.902;12.472;2023-01-16T05:52:06;25.60;2201.60
26272;DHT22;13997;48.902;12.472;2023-01-16T05:54:32;25.70;2201.60
26272;DHT22;13997;48.902;12.472;2023-01-16T05:56:58;25.60;2201.60
26272;DHT22;13997;48.902;12.472;2023-01-16T05:59:23;25.70;2201.60
26272;DHT22;13997;48.902;12.472;2023-01-16T06:01:49;25.70;2201.60
26272;DHT22;13997;48.902;12.472;2023-01-16T06:04:15;25.70;2201.60
26272;DHT22;13997;48.902;12.472;2023-01-16T06:06:40;25.70;2201.60
26272;DHT22;13997;48.902;12.472;2023-01-16T06:09:06;25.70;2201.60
26272;DHT22;13997;48.902;12.472;2023-01-16T06:11:31;25.70;2201.60
26272;DHT22;13997;48.902;12.472;2023-01-16T06:13:57;25.60;2201.60
26272;DHT22;13997;48.902;12.472;2023-01-16T06:16:28;25.60;2201.60
26272;DHT22;13997;48.902;12.472;2023-01-16T06:18:54;25.60;2201.60
26272;DHT22;13997;48.902;12.472;2023-01-16T06:21:19;25.60;2201.60
26272;DHT22;13997;48.902;12.472;2023-01-16T06:23:45;25.60;2201.60
26272;DHT22;13997;48.902;12.472;2023-01-16T06:26:11;0.90;2201.60
26272;DHT22;13997;48.902;12.472;2023-01-16T06:28:37;25.60;2201.60
26272;DHT22;13997;48.902;12.472;2023-01-16T06:31:04;25.60;2201.60
26272;DHT22;13997;48.902;12.472;2023-01-16T06:33:30;0.90;2201.60
26272;DHT22;13997;48.902;12.472;2023-01-16T06:35:56;0.90;2201.60
26272;DHT22;13997;48.902;12.472;2023-01-16T06:38:22;0.90;2201.60
26272;DHT22;13997;48.902;12.472;2023-01-16T06:40:48;0.90;2201.60
26272;DHT22;13997;48.902;12.472;2023-01-16T06:43:14;0.90;2201.60
26272;DHT22;13997;48.902;12.472;2023-01-16T06:45:42;0.90;2201.60
26272;DHT22;13997;48.902;12.472;2023-01-16T06:48:09;0.90;2201.60
26272;DHT22;13997;48.902;12.472;2023-01-16T06:50:35;0.90;2201.60
26272;DHT22;13997;48.902;12.472;2023-01-16T06:53:00;0.90;2201.60
26272;DHT22;13997;48.902;12.472;2023-01-16T06:55:26;0.90;2201.60
26272;DHT22;13997;48.902;12.472;2023-01-16T06:57:51;0.90;2201.60
26272;DHT22;13997;48.902;12.472;2023-01-16T07:00:17;0.90;2201.60
26272;DHT22;13997;48.902;12.472;2023-01-16T07:02:43;0.90;2201.60
26272;DHT22;13997;48.902;12.472;2023-01-16T07:05:09;25.60;2201.60
26272;DHT22;13997;48.902;12.472;2023-01-16T07:07:36;0.90;2201.60
26272;DHT22;13997;48.902;12.472;2023-01-16T07:10:02;0.90;2201.60
26272;DHT22;13997;48.902;12.472;2023-01-16T07:12:28;25.60;2201.60
26272;DHT22;13997;48.902;12.472;2023-01-16T07:14:54;25.60;2201.60
26272;DHT22;13997;48.902;12.472;2023-01-16T07:17:38;25.60;2201.60
26272;DHT22;13997;48.902;12.472;2023-01-16T07:20:22;25.60;2201.60
26272;DHT22;13997;48.902;12.472;2023-01-16T07:23:29;25.60;2201.60
26272;DHT22;13997;48.902;12.472;2023-01-16T07:25:59;25.60;2201.60
26272;DHT22;13997;48.902;12.472;2023-01-16T07:28:25;25.60;2201.60
26272;DHT22;13997;48.902;12.472;2023-01-16T07:30:51;25.70;2201.60
26272;DHT22;13997;48.902;12.472;2023-01-16T07:33:17;25.70;2201.60
26272;DHT22;13997;48.902;12.472;2023-01-16T07:35:43;25.70;2201.60
26272;DHT22;13997;48.902;12.472;2023-01-16T07:38:10;25.70;2201.60
26272;DHT22;13997;48.902;12.472;2023-01-16T07:40:36;25.80;2201.60
26272;DHT22;13997;48.902;12.472;2023-01-16T07:43:02;25.80;2201.60
26272;DHT22;13997;48.902;12.472;2023-01-16T07:45:27;25.90;2201.60
26272;DHT22;13997;48.902;12.472;2023-01-16T07:47:53;25.90;2201.60
26272;DHT22;13997;48.902;12.472;2023-01-16T07:50:18;25.90;2201.60
26272;DHT22;13997;48.902;12.472;2023-01-16T07:52:44;26.00;2201.60
26272;DHT22;13997;48.902;12.472;2023-01-16T07:55:11;26.00;2201.60
26272;DHT22;13997;48.902;12.472;2023-01-16T08:26:51;51.30;2227.20
26272;DHT22;13997;48.902;12.472;2023-01-16T08:29:17;51.40;2227.20
26272;DHT22;13997;48.902;12.472;2023-01-16T08:31:43;51.40;2227.20
26272;DHT22;13997;48.902;12.472;2023-01-16T08:34:09;51.40;2227.20
26272;DHT22;13997;48.902;12.472;2023-01-16T08:36:35;51.40;2227.20
26272;DHT22;13997;48.902;12.472;2023-01-16T08:39:00;51.50;2227.20
26272;DHT22;13997;48.902;12.472;2023-01-16T08:41:27;51.60;2227.20
26272;DHT22;13997;48.902;12.472;2023-01-16T08:44:11;51.60;2227.20
26272;DHT22;13997;48.902;12.472;2023-01-16T08:47:01;51.60;2227.20
26272;DHT22;13997;48.902;12.472;2023-01-16T08:49:47;51.70;2227.20
26272;DHT22;13997;48.902;12.472;2023-01-16T08:52:32;51.80;2227.20
26272;DHT22;13997;48.902;12.472;2023-01-16T08:54:59;51.80;2227.20
26272;DHT22;13997;48.902;12.472;2023-01-16T08:57:25;51.90;2227.20
26272;DHT22;13997;48.902;12.472;2023-01-16T08:59:53;51.80;2227.20
26272;DHT22;13997;48.902;12.472;2023-01-16T09:02:19;51.90;2227.20
26272;DHT22;13997;48.902;12.472;2023-01-16T09:04:45;52.00;2227.20
26272;DHT22;13997;48.902;12.472;2023-01-16T09:07:11;52.00;2227.20
26272;DHT22;13997;48.902;12.472;2023-01-16T09:09:37;52.00;2227.20
26272;DHT22;13997;48.902;12.472;2023-01-16T09:12:02;52.10;2227.20
26272;DHT22;13997;48.902;12.472;2023-01-16T09:14:47;76.80;2227.20
26272;DHT22;13997;48.902;12.472;2023-01-16T09:17:12;76.80;2227.20
26272;DHT22;13997;48.902;12.472;2023-01-16T09:19:38;76.90;2227.20
26272;DHT22;13997;48.902;12.472;2023-01-16T09:22:04;76.90;2227.20
26272;DHT22;13997;48.902;12.472;2023-01-16T09:24:34;77.00;2227.20
26272;DHT22;13997;48.902;12.472;2023-01-16T09:27:01;77.00;2227.20
26272;DHT22;13997;48.902;12.472;2023-01-16T09:29:27;77.10;2227.20
26272;DHT22;13997;48.902;12.472;2023-01-16T09:31:53;77.10;2227.20
26272;DHT22;13997;48.902;12.472;2023-01-16T09:34:19;77.20;2227.20
26272;DHT22;13997;48.902;12.472;2023-01-16T09:36:44;77.20;2227.20
26272;DHT22;13997;48.902;12.472;2023-01-16T09:39:10;77.20;2227.20
26272;DHT22;13997;48.902;12.472;2023-01-16T09:41:41;77.40;2227.20
